sensor_id;sensor_type;location;lat;lon;timestamp;temperature;humidity
19654;DHT22;9975;48.046;7.804;2023-02-28T01:57:04;0.00;56.80
19654;DHT22;9975;48.046;7.804;2023-02-28T02:02:03;0.00;57.20
19654;DHT22;9975;48.046;7.804;2023-02-28T02:04:34;0.10;57.40
19654;DHT22;9975;48.046;7.804;2023-02-28T02:07:01;0.10;57.50
19654;DHT22;9975;48.046;7.804;2023-02-28T02:09:26;0.10;57.50
19654;DHT22;9975;48.046;7.804;2023-02-28T02:11:55;0.10;58.00
19654;DHT22;9975;48.046;7.804;2023-02-28T02:15:41;0.20;57.70
19654;DHT22;9975;48.046;7.804;2023-02-28T02:17:39;0.20;57.60
19654;DHT22;9975;48.046;7.804;2023-02-28T02:31:55;0.20;57.80
19654;DHT22;9975;48.046;7.804;2023-02-28T02:37:03;0.30;58.10
19654;DHT22;9975;48.046;7.804;2023-02-28T02:42:25;0.30;58.00
19654;DHT22;9975;48.046;7.804;2023-02-28T02:47:41;0.30;58.40
19654;DHT22;9975;48.046;7.804;2023-02-28T02:50:13;0.20;59.00
19654;DHT22;9975;48.046;7.804;2023-02-28T02:52:47;0.20;59.00
19654;DHT22;9975;48.046;7.804;2023-02-28T02:55:15;0.20;59.30
19654;DHT22;9975;48.046;7.804;2023-02-28T02:57:54;0.10;59.40
19654;DHT22;9975;48.046;7.804;2023-02-28T03:00:30;0.10;59.50
19654;DHT22;9975;48.046;7.804;2023-02-28T03:02:57;0.10;59.60
19654;DHT22;9975;48.046;7.804;2023-02-28T03:05:30;0.10;59.70
19654;DHT22;9975;48.046;7.804;2023-02-28T03:07:59;0.20;59.70
19654;DHT22;9975;48.046;7.804;2023-02-28T03:10:28;0.10;59.70
19654;DHT22;9975;48.046;7.804;2023-02-28T03:13:08;0.10;59.80
19654;DHT22;9975;48.046;7.804;2023-02-28T03:15:50;0.20;59.80
19654;DHT22;9975;48.046;7.804;2023-02-28T03:26:52;0.10;60.40
19654;DHT22;9975;48.046;7.804;2023-02-28T03:29:28;0.10;60.60
19654;DHT22;9975;48.046;7.804;2023-02-28T03:35:16;0.10;60.50
19654;DHT22;9975;48.046;7.804;2023-02-28T03:37:49;0.10;60.70
19654;DHT22;9975;48.046;7.804;2023-02-28T03:40:29;0.20;60.90
19654;DHT22;9975;48.046;7.804;2023-02-28T03:43:00;0.10;60.90
19654;DHT22;9975;48.046;7.804;2023-02-28T03:45:33;0.10;61.10
19654;DHT22;9975;48.046;7.804;2023-02-28T03:48:16;0.00;61.40
19654;DHT22;9975;48.046;7.804;2023-02-28T03:50:47;0.10;61.50
19654;DHT22;9975;48.046;7.804;2023-02-28T03:53:29;0.10;61.60
19654;DHT22;9975;48.046;7.804;2023-02-28T03:56:22;0.10;61.80
19654;DHT22;9975;48.046;7.804;2023-02-28T03:59:16;0.10;62.00
19654;DHT22;9975;48.046;7.804;2023-02-28T04:01:45;0.10;62.10
19654;DHT22;9975;48.046;7.804;2023-02-28T04:04:13;0.80;62.80
19654;DHT22;9975;48.046;7.804;2023-02-28T04:06:39;0.10;62.20
19654;DHT22;9975;48.046;7.804;2023-02-28T04:09:07;0.00;62.80
19654;DHT22;9975;48.046;7.804;2023-02-28T04:11:42;0.00;62.80
19654;DHT22;9975;48.046;7.804;2023-02-28T04:14:09;0.00;63.20
19654;DHT22;9975;48.046;7.804;2023-02-28T04:16:37;0.00;63.60
19654;DHT22;9975;48.046;7.804;2023-02-28T04:19:05;0.90;64.50
19654;DHT22;9975;48.046;7.804;2023-02-28T04:21:42;0.00;63.60
19654;DHT22;9975;48.046;7.804;2023-02-28T04:24:20;-0.10;64.00
19654;DHT22;9975;48.046;7.804;2023-02-28T04:26:49;0.00;64.20
19654;DHT22;9975;48.046;7.804;2023-02-28T04:29:23;0.00;64.10
19654;DHT22;9975;48.046;7.804;2023-02-28T04:31:50;0.00;64.10
19654;DHT22;9975;48.046;7.804;2023-02-28T04:34:16;0.00;63.70
19654;DHT22;9975;48.046;7.804;2023-02-28T04:36:42;0.00;64.00
19654;DHT22;9975;48.046;7.804;2023-02-28T04:39:08;0.00;64.40
19654;DHT22;9975;48.046;7.804;2023-02-28T04:41:35;0.00;64.20
19654;DHT22;9975;48.046;7.804;2023-02-28T04:44:01;0.70;64.90
19654;DHT22;9975;48.046;7.804;2023-02-28T04:46:26;0.10;63.90
19654;DHT22;9975;48.046;7.804;2023-02-28T04:48:52;0.10;63.70
19654;DHT22;9975;48.046;7.804;2023-02-28T04:51:19;0.20;63.50
19654;DHT22;9975;48.046;7.804;2023-02-28T04:53:45;0.20;63.20
19654;DHT22;9975;48.046;7.804;2023-02-28T04:56:15;0.20;63.30
19654;DHT22;9975;48.046;7.804;2023-02-28T04:58:41;0.30;63.40
19654;DHT22;9975;48.046;7.804;2023-02-28T05:01:28;0.30;63.40
19654;DHT22;9975;48.046;7.804;2023-02-28T05:03:57;0.30;63.30
19654;DHT22;9975;48.046;7.804;2023-02-28T05:06:25;0.30;63.40
19654;DHT22;9975;48.046;7.804;2023-02-28T05:08:52;1.90;65.30
19654;DHT22;9975;48.046;7.804;2023-02-28T05:11:18;0.90;64.40
19654;DHT22;9975;48.046;7.804;2023-02-28T05:13:44;0.20;63.60
19654;DHT22;9975;48.046;7.804;2023-02-28T05:16:10;0.30;63.80
19654;DHT22;9975;48.046;7.804;2023-02-28T05:18:36;0.20;63.60
19654;DHT22;9975;48.046;7.804;2023-02-28T05:21:02;1.30;65.00
19654;DHT22;9975;48.046;7.804;2023-02-28T05:23:27;0.20;63.90
19654;DHT22;9975;48.046;7.804;2023-02-28T05:25:53;0.30;63.90
19654;DHT22;9975;48.046;7.804;2023-02-28T05:28:19;0.30;63.90
19654;DHT22;9975;48.046;7.804;2023-02-28T05:30:46;0.30;64.10
19654;DHT22;9975;48.046;7.804;2023-02-28T05:33:12;0.30;64.10
19654;DHT22;9975;48.046;7.804;2023-02-28T05:35:41;0.30;64.30
19654;DHT22;9975;48.046;7.804;2023-02-28T05:38:10;0.60;64.60
19654;DHT22;9975;48.046;7.804;2023-02-28T05:40:38;0.30;64.30
19654;DHT22;9975;48.046;7.804;2023-02-28T05:43:05;0.20;64.40
19654;DHT22;9975;48.046;7.804;2023-02-28T05:45:30;0.20;64.50
19654;DHT22;9975;48.046;7.804;2023-02-28T05:47:56;0.20;64.70
19654;DHT22;9975;48.046;7.804;2023-02-28T05:50:22;0.20;64.70
19654;DHT22;9975;48.046;7.804;2023-02-28T05:52:51;0.30;64.70
19654;DHT22;9975;48.046;7.804;2023-02-28T05:55:17;0.30;64.80
19654;DHT22;9975;48.046;7.804;2023-02-28T05:57:43;0.30;65.00
19654;DHT22;9975;48.046;7.804;2023-02-28T06:00:13;0.30;65.50
19654;DHT22;9975;48.046;7.804;2023-02-28T06:02:40;0.20;65.90
19654;DHT22;9975;48.046;7.804;2023-02-28T06:05:15;0.70;66.90
19654;DHT22;9975;48.046;7.804;2023-02-28T06:07:41;0.20;67.00
19654;DHT22;9975;48.046;7.804;2023-02-28T06:10:07;0.30;67.90
19654;DHT22;9975;48.046;7.804;2023-02-28T06:12:33;0.30;69.30
19654;DHT22;9975;48.046;7.804;2023-02-28T06:14:58;0.20;69.20
19654;DHT22;9975;48.046;7.804;2023-02-28T06:17:24;0.10;69.50
19654;DHT22;9975;48.046;7.804;2023-02-28T06:19:49;0.10;70.30
19654;DHT22;9975;48.046;7.804;2023-02-28T06:22:15;0.10;70.50
19654;DHT22;9975;48.046;7.804;2023-02-28T06:24:41;0.10;70.90
19654;DHT22;9975;48.046;7.804;2023-02-28T06:27:07;0.00;71.40
19654;DHT22;9975;48.046;7.804;2023-02-28T06:29:33;0.00;72.20
19654;DHT22;9975;48.046;7.804;2023-02-28T06:31:59;0.10;72.40
19654;DHT22;9975;48.046;7.804;2023-02-28T06:34:25;0.10;72.40
19654;DHT22;9975;48.046;7.804;2023-02-28T06:36:52;0.10;72.50
19654;DHT22;9975;48.046;7.804;2023-02-28T06:39:17;0.10;72.60
19654;DHT22;9975;48.046;7.804;2023-02-28T06:41:45;0.40;73.30
19654;DHT22;9975;48.046;7.804;2023-02-28T06:44:17;0.00;73.50
19654;DHT22;9975;48.046;7.804;2023-02-28T06:46:43;0.10;73.20
19654;DHT22;9975;48.046;7.804;2023-02-28T06:49:10;0.10;73.70
19654;DHT22;9975;48.046;7.804;2023-02-28T06:51:38;0.10;73.50
19654;DHT22;9975;48.046;7.804;2023-02-28T06:54:04;0.00;73.50
19654;DHT22;9975;48.046;7.804;2023-02-28T06:56:30;1.20;74.80
19654;DHT22;9975;48.046;7.804;2023-02-28T06:58:56;1.10;74.80
19654;DHT22;9975;48.046;7.804;2023-02-28T07:01:22;0.10;74.10
19654;DHT22;9975;48.046;7.804;2023-02-28T07:03:50;0.10;74.00
19654;DHT22;9975;48.046;7.804;2023-02-28T07:06:21;0.10;73.80
19654;DHT22;9975;48.046;7.804;2023-02-28T07:08:48;0.20;73.80
19654;DHT22;9975;48.046;7.804;2023-02-28T07:11:14;0.20;73.40
19654;DHT22;9975;48.046;7.804;2023-02-28T07:13:40;1.20;74.20
19654;DHT22;9975;48.046;7.804;2023-02-28T07:16:07;0.20;73.30
19654;DHT22;9975;48.046;7.804;2023-02-28T07:21:56;0.30;73.40
19654;DHT22;9975;48.046;7.804;2023-02-28T07:24:21;0.60;73.40
19654;DHT22;9975;48.046;7.804;2023-02-28T07:26:51;1.00;74.00
19654;DHT22;9975;48.046;7.804;2023-02-28T07:29:16;0.30;73.20
19654;DHT22;9975;48.046;7.804;2023-02-28T07:31:43;0.40;73.10
19654;DHT22;9975;48.046;7.804;2023-02-28T07:34:09;0.40;73.10
19654;DHT22;9975;48.046;7.804;2023-02-28T07:36:34;0.40;73.00
19654;DHT22;9975;48.046;7.804;2023-02-28T07:39:00;0.50;73.20
19654;DHT22;9975;48.046;7.804;2023-02-28T07:41:25;0.50;73.20
19654;DHT22;9975;48.046;7.804;2023-02-28T07:43:57;0.60;73.10
19654;DHT22;9975;48.046;7.804;2023-02-28T07:46:25;0.60;72.60
19654;DHT22;9975;48.046;7.804;2023-02-28T07:48:51;0.70;72.20
19654;DHT22;9975;48.046;7.804;2023-02-28T07:51:16;0.70;71.80
19654;DHT22;9975;48.046;7.804;2023-02-28T07:53:42;2.50;73.20
19654;DHT22;9975;48.046;7.804;2023-02-28T07:56:08;0.80;71.50
19654;DHT22;9975;48.046;7.804;2023-02-28T07:58:34;2.30;72.80
19654;DHT22;9975;48.046;7.804;2023-02-28T08:01:10;0.80;71.50
19654;DHT22;9975;48.046;7.804;2023-02-28T08:03:37;0.90;71.80
19654;DHT22;9975;48.046;7.804;2023-02-28T08:06:04;1.80;72.70
19654;DHT22;9975;48.046;7.804;2023-02-28T08:08:30;1.00;71.40
19654;DHT22;9975;48.046;7.804;2023-02-28T08:10:59;2.40;72.40
19654;DHT22;9975;48.046;7.804;2023-02-28T08:13:26;1.20;70.60
19654;DHT22;9975;48.046;7.804;2023-02-28T08:15:53;2.30;71.80
19654;DHT22;9975;48.046;7.804;2023-02-28T08:18:19;2.40;72.40
19654;DHT22;9975;48.046;7.804;2023-02-28T08:20:45;2.60;72.40
19654;DHT22;9975;48.046;7.804;2023-02-28T08:23:10;1.80;71.20
19654;DHT22;9975;48.046;7.804;2023-02-28T08:25:36;1.60;71.00
19654;DHT22;9975;48.046;7.804;2023-02-28T08:28:01;1.60;70.20
19654;DHT22;9975;48.046;7.804;2023-02-28T08:30:27;1.50;69.70
19654;DHT22;9975;48.046;7.804;2023-02-28T08:32:53;2.50;70.90
19654;DHT22;9975;48.046;7.804;2023-02-28T08:35:19;1.70;69.60
19654;DHT22;9975;48.046;7.804;2023-02-28T08:37:49;2.40;70.10
19654;DHT22;9975;48.046;7.804;2023-02-28T08:40:16;1.80;69.20
19654;DHT22;9975;48.046;7.804;2023-02-28T08:42:44;1.90;69.30
19654;DHT22;9975;48.046;7.804;2023-02-28T08:45:10;1.90;69.30
19654;DHT22;9975;48.046;7.804;2023-02-28T08:47:36;2.00;69.10
19654;DHT22;9975;48.046;7.804;2023-02-28T08:50:03;2.10;68.60
19654;DHT22;9975;48.046;7.804;2023-02-28T08:52:28;2.20;68.60
19654;DHT22;9975;48.046;7.804;2023-02-28T08:54:54;3.10;69.20
19654;DHT22;9975;48.046;7.804;2023-02-28T08:57:20;3.50;69.40
19654;DHT22;9975;48.046;7.804;2023-02-28T08:59:45;2.80;68.50
19654;DHT22;9975;48.046;7.804;2023-02-28T09:02:14;2.50;67.70
19654;DHT22;9975;48.046;7.804;2023-02-28T09:04:42;2.50;67.20
19654;DHT22;9975;48.046;7.804;2023-02-28T09:07:10;3.60;68.40
19654;DHT22;9975;48.046;7.804;2023-02-28T09:09:36;4.20;68.70
19654;DHT22;9975;48.046;7.804;2023-02-28T09:12:03;3.00;66.90
19654;DHT22;9975;48.046;7.804;2023-02-28T09:14:34;2.80;67.30
19654;DHT22;9975;48.046;7.804;2023-02-28T09:17:00;2.80;65.60
19654;DHT22;9975;48.046;7.804;2023-02-28T09:19:25;2.90;65.70
19654;DHT22;9975;48.046;7.804;2023-02-28T09:21:51;3.10;65.80
19654;DHT22;9975;48.046;7.804;2023-02-28T09:24:17;4.20;66.30
19654;DHT22;9975;48.046;7.804;2023-02-28T09:26:45;3.30;64.80
19654;DHT22;9975;48.046;7.804;2023-02-28T09:29:10;3.40;64.90
19654;DHT22;9975;48.046;7.804;2023-02-28T09:31:36;3.70;64.10
19654;DHT22;9975;48.046;7.804;2023-02-28T09:34:03;3.60;63.60
19654;DHT22;9975;48.046;7.804;2023-02-28T09:36:29;3.80;63.00
19654;DHT22;9975;48.046;7.804;2023-02-28T09:38:55;4.00;63.70
19654;DHT22;9975;48.046;7.804;2023-02-28T09:41:26;3.60;62.10
19654;DHT22;9975;48.046;7.804;2023-02-28T09:43:57;3.60;61.70
19654;DHT22;9975;48.046;7.804;2023-02-28T09:46:34;4.20;61.60
19654;DHT22;9975;48.046;7.804;2023-02-28T09:49:06;3.60;60.50
19654;DHT22;9975;48.046;7.804;2023-02-28T09:54:15;3.60;60.00
19654;DHT22;9975;48.046;7.804;2023-02-28T09:57:08;3.40;58.00
19654;DHT22;9975;48.046;7.804;2023-02-28T10:00:03;3.40;58.70
19654;DHT22;9975;48.046;7.804;2023-02-28T10:03:16;3.40;58.60
19654;DHT22;9975;48.046;7.804;2023-02-28T10:06:06;3.40;58.10
19654;DHT22;9975;48.046;7.804;2023-02-28T10:11:17;3.50;59.00
19654;DHT22;9975;48.046;7.804;2023-02-28T10:16:31;3.50;57.80
19654;DHT22;9975;48.046;7.804;2023-02-28T10:19:21;3.90;58.80
19654;DHT22;9975;48.046;7.804;2023-02-28T10:21:57;3.50;57.90
19654;DHT22;9975;48.046;7.804;2023-02-28T10:24:33;3.60;58.20
19654;DHT22;9975;48.046;7.804;2023-02-28T10:27:15;3.70;58.00
19654;DHT22;9975;48.046;7.804;2023-02-28T10:29:46;3.70;57.60
19654;DHT22;9975;48.046;7.804;2023-02-28T10:32:18;3.90;57.40
19654;DHT22;9975;48.046;7.804;2023-02-28T10:34:44;3.60;56.60
19654;DHT22;9975;48.046;7.804;2023-02-28T10:37:11;3.60;57.40
19654;DHT22;9975;48.046;7.804;2023-02-28T10:39:46;3.70;57.40
19654;DHT22;9975;48.046;7.804;2023-02-28T10:42:29;3.60;57.10
19654;DHT22;9975;48.046;7.804;2023-02-28T10:45:15;3.60;58.20
19654;DHT22;9975;48.046;7.804;2023-02-28T10:50:52;3.70;57.70
19654;DHT22;9975;48.046;7.804;2023-02-28T11:03:51;3.80;57.50
19654;DHT22;9975;48.046;7.804;2023-02-28T11:08:50;3.70;58.20
19654;DHT22;9975;48.046;7.804;2023-02-28T11:11:17;3.80;58.30
19654;DHT22;9975;48.046;7.804;2023-02-28T11:13:45;3.80;57.00
19654;DHT22;9975;48.046;7.804;2023-02-28T11:16:12;3.70;57.20
19654;DHT22;9975;48.046;7.804;2023-02-28T11:21:05;4.00;57.50
19654;DHT22;9975;48.046;7.804;2023-02-28T11:23:32;4.10;56.80
19654;DHT22;9975;48.046;7.804;2023-02-28T11:26:03;4.20;57.90
19654;DHT22;9975;48.046;7.804;2023-02-28T11:28:32;4.20;57.50
19654;DHT22;9975;48.046;7.804;2023-02-28T11:36:11;4.20;56.60
19654;DHT22;9975;48.046;7.804;2023-02-28T11:38:37;4.30;57.30
19654;DHT22;9975;48.046;7.804;2023-02-28T11:47:20;4.80;56.80
19654;DHT22;9975;48.046;7.804;2023-02-28T11:50:16;4.80;56.40
19654;DHT22;9975;48.046;7.804;2023-02-28T11:52:51;4.90;56.80
19654;DHT22;9975;48.046;7.804;2023-02-28T12:10:05;4.80;56.80
19654;DHT22;9975;48.046;7.804;2023-02-28T12:18:08;5.10;56.00
19654;DHT22;9975;48.046;7.804;2023-02-28T12:28:40;5.30;56.50
19654;DHT22;9975;48.046;7.804;2023-02-28T12:33:59;5.40;56.30
19654;DHT22;9975;48.046;7.804;2023-02-28T12:36:25;5.20;55.10
19654;DHT22;9975;48.046;7.804;2023-02-28T12:41:42;5.20;56.30
19654;DHT22;9975;48.046;7.804;2023-02-28T12:46:57;5.40;56.40
19654;DHT22;9975;48.046;7.804;2023-02-28T12:49:49;5.60;56.40
19654;DHT22;9975;48.046;7.804;2023-02-28T12:52:23;5.70;55.70
19654;DHT22;9975;48.046;7.804;2023-02-28T12:55:02;5.80;55.10
19654;DHT22;9975;48.046;7.804;2023-02-28T13:00:03;5.70;54.80
19654;DHT22;9975;48.046;7.804;2023-02-28T13:08:32;5.70;55.20
19654;DHT22;9975;48.046;7.804;2023-02-28T13:11:03;5.80;55.00
19654;DHT22;9975;48.046;7.804;2023-02-28T13:13:30;6.00;54.60
19654;DHT22;9975;48.046;7.804;2023-02-28T13:16:09;6.00;53.90
19654;DHT22;9975;48.046;7.804;2023-02-28T13:18:44;6.30;54.70
19654;DHT22;9975;48.046;7.804;2023-02-28T13:21:24;6.50;53.80
19654;DHT22;9975;48.046;7.804;2023-02-28T13:29:40;6.70;53.30
19654;DHT22;9975;48.046;7.804;2023-02-28T13:39:57;6.50;53.30
19654;DHT22;9975;48.046;7.804;2023-02-28T13:42:47;6.40;52.60
19654;DHT22;9975;48.046;7.804;2023-02-28T13:45:27;6.30;53.90
19654;DHT22;9975;48.046;7.804;2023-02-28T13:48:03;6.40;53.90
19654;DHT22;9975;48.046;7.804;2023-02-28T13:50:33;6.40;54.00
19654;DHT22;9975;48.046;7.804;2023-02-28T13:53:34;6.50;53.80
19654;DHT22;9975;48.046;7.804;2023-02-28T13:56:24;6.40;53.70
19654;DHT22;9975;48.046;7.804;2023-02-28T13:59:13;6.30;53.70
19654;DHT22;9975;48.046;7.804;2023-02-28T14:01:56;6.80;53.30
19654;DHT22;9975;48.046;7.804;2023-02-28T14:05:00;7.30;52.90
19654;DHT22;9975;48.046;7.804;2023-02-28T14:07:47;7.70;50.80
19654;DHT22;9975;48.046;7.804;2023-02-28T14:10:36;8.20;50.50
19654;DHT22;9975;48.046;7.804;2023-02-28T14:13:04;8.30;49.70
19654;DHT22;9975;48.046;7.804;2023-02-28T14:15:46;8.10;49.90
19654;DHT22;9975;48.046;7.804;2023-02-28T14:20:53;7.80;49.80
19654;DHT22;9975;48.046;7.804;2023-02-28T14:26:48;7.50;49.70
19654;DHT22;9975;48.046;7.804;2023-02-28T14:29:19;7.50;50.40
19654;DHT22;9975;48.046;7.804;2023-02-28T14:32:11;7.50;50.90
19654;DHT22;9975;48.046;7.804;2023-02-28T14:37:30;7.50;50.90
19654;DHT22;9975;48.046;7.804;2023-02-28T14:39:58;7.30;51.20
19654;DHT22;9975;48.046;7.804;2023-02-28T14:44:56;7.50;50.90
19654;DHT22;9975;48.046;7.804;2023-02-28T14:47:24;7.40;50.90
19654;DHT22;9975;48.046;7.804;2023-02-28T14:49:51;7.30;50.80
19654;DHT22;9975;48.046;7.804;2023-02-28T14:52:25;7.10;51.20
19654;DHT22;9975;48.046;7.804;2023-02-28T14:54:54;7.20;51.30
19654;DHT22;9975;48.046;7.804;2023-02-28T14:57:33;7.30;51.60
19654;DHT22;9975;48.046;7.804;2023-02-28T15:00:16;7.40;50.60
19654;DHT22;9975;48.046;7.804;2023-02-28T15:02:43;7.50;50.70
19654;DHT22;9975;48.046;7.804;2023-02-28T15:07:44;7.30;50.70
19654;DHT22;9975;48.046;7.804;2023-02-28T15:10:24;7.20;50.50
19654;DHT22;9975;48.046;7.804;2023-02-28T15:12:59;7.30;50.70
19654;DHT22;9975;48.046;7.804;2023-02-28T15:20:47;7.00;51.10
19654;DHT22;9975;48.046;7.804;2023-02-28T15:23:13;6.90;51.40
19654;DHT22;9975;48.046;7.804;2023-02-28T15:25:40;6.80;51.20
19654;DHT22;9975;48.046;7.804;2023-02-28T15:28:14;6.70;51.20
19654;DHT22;9975;48.046;7.804;2023-02-28T15:30:58;6.70;51.30
19654;DHT22;9975;48.046;7.804;2023-02-28T15:33:27;6.60;52.20
19654;DHT22;9975;48.046;7.804;2023-02-28T15:36:13;6.50;51.80
19654;DHT22;9975;48.046;7.804;2023-02-28T15:38:39;6.40;51.40
19654;DHT22;9975;48.046;7.804;2023-02-28T15:41:27;6.40;51.50
19654;DHT22;9975;48.046;7.804;2023-02-28T15:46:57;6.20;51.40
19654;DHT22;9975;48.046;7.804;2023-02-28T15:49:24;6.00;51.70
19654;DHT22;9975;48.046;7.804;2023-02-28T15:51:51;5.80;52.60
19654;DHT22;9975;48.046;7.804;2023-02-28T15:54:29;5.80;53.00
19654;DHT22;9975;48.046;7.804;2023-02-28T15:56:57;5.70;52.40
19654;DHT22;9975;48.046;7.804;2023-02-28T15:59:28;5.60;52.40
19654;DHT22;9975;48.046;7.804;2023-02-28T16:04:36;5.70;53.50
19654;DHT22;9975;48.046;7.804;2023-02-28T16:07:04;5.80;53.40
19654;DHT22;9975;48.046;7.804;2023-02-28T16:09:31;6.00;53.10
19654;DHT22;9975;48.046;7.804;2023-02-28T16:12:02;6.10;52.80
19654;DHT22;9975;48.046;7.804;2023-02-28T16:14:29;6.30;52.80
19654;DHT22;9975;48.046;7.804;2023-02-28T16:17:20;6.40;52.80
19654;DHT22;9975;48.046;7.804;2023-02-28T16:19:46;6.40;51.80
19654;DHT22;9975;48.046;7.804;2023-02-28T16:22:11;6.50;51.70
19654;DHT22;9975;48.046;7.804;2023-02-28T16:24:37;6.50;51.70
19654;DHT22;9975;48.046;7.804;2023-02-28T16:27:04;6.40;51.70
19654;DHT22;9975;48.046;7.804;2023-02-28T16:29:34;6.30;51.80
19654;DHT22;9975;48.046;7.804;2023-02-28T16:32:00;6.20;51.90
19654;DHT22;9975;48.046;7.804;2023-02-28T16:34:26;6.20;52.30
19654;DHT22;9975;48.046;7.804;2023-02-28T16:36:52;6.10;52.20
19654;DHT22;9975;48.046;7.804;2023-02-28T16:39:18;6.00;51.80
19654;DHT22;9975;48.046;7.804;2023-02-28T16:41:47;6.00;52.20
19654;DHT22;9975;48.046;7.804;2023-02-28T16:44:34;5.80;51.90
19654;DHT22;9975;48.046;7.804;2023-02-28T16:47:00;5.70;52.50
19654;DHT22;9975;48.046;7.804;2023-02-28T16:49:26;5.70;53.20
19654;DHT22;9975;48.046;7.804;2023-02-28T16:51:52;6.00;53.30
19654;DHT22;9975;48.046;7.804;2023-02-28T16:54:18;5.60;52.50
19654;DHT22;9975;48.046;7.804;2023-02-28T16:56:46;5.40;53.00
19654;DHT22;9975;48.046;7.804;2023-02-28T16:59:12;5.40;53.70
19654;DHT22;9975;48.046;7.804;2023-02-28T17:01:39;5.30;53.30
19654;DHT22;9975;48.046;7.804;2023-02-28T17:04:08;5.30;53.50
19654;DHT22;9975;48.046;7.804;2023-02-28T17:06:34;5.00;53.60
19654;DHT22;9975;48.046;7.804;2023-02-28T17:08:59;5.00;54.00
19654;DHT22;9975;48.046;7.804;2023-02-28T17:11:26;4.80;54.40
19654;DHT22;9975;48.046;7.804;2023-02-28T17:13:51;4.80;54.50
19654;DHT22;9975;48.046;7.804;2023-02-28T17:16:31;4.60;54.70
19654;DHT22;9975;48.046;7.804;2023-02-28T17:19:00;4.50;54.90
19654;DHT22;9975;48.046;7.804;2023-02-28T17:21:27;4.40;55.30
19654;DHT22;9975;48.046;7.804;2023-02-28T17:23:53;4.40;55.50
19654;DHT22;9975;48.046;7.804;2023-02-28T17:26:19;4.30;56.20
19654;DHT22;9975;48.046;7.804;2023-02-28T17:28:49;-0.20;53.40
19654;DHT22;9975;48.046;7.804;2023-02-28T17:31:31;3.70;56.90
19654;DHT22;9975;48.046;7.804;2023-02-28T17:33:58;3.80;57.00
19654;DHT22;9975;48.046;7.804;2023-02-28T17:36:25;3.90;57.10
19654;DHT22;9975;48.046;7.804;2023-02-28T17:38:53;3.80;56.90
19654;DHT22;9975;48.046;7.804;2023-02-28T17:41:19;3.80;57.10
19654;DHT22;9975;48.046;7.804;2023-02-28T17:43:45;3.60;57.60
19654;DHT22;9975;48.046;7.804;2023-02-28T17:46:17;3.50;57.70
19654;DHT22;9975;48.046;7.804;2023-02-28T17:48:44;3.40;58.60
19654;DHT22;9975;48.046;7.804;2023-02-28T17:51:13;3.90;59.00
19654;DHT22;9975;48.046;7.804;2023-02-28T17:53:42;3.30;58.30
19654;DHT22;9975;48.046;7.804;2023-02-28T17:56:12;3.30;58.40
19654;DHT22;9975;48.046;7.804;2023-02-28T17:58:38;3.40;58.90
19654;DHT22;9975;48.046;7.804;2023-02-28T18:01:04;3.90;59.50
19654;DHT22;9975;48.046;7.804;2023-02-28T18:03:38;3.10;58.90
19654;DHT22;9975;48.046;7.804;2023-02-28T18:06:04;3.00;59.00
19654;DHT22;9975;48.046;7.804;2023-02-28T18:08:32;3.00;59.50
19654;DHT22;9975;48.046;7.804;2023-02-28T18:11:00;3.30;59.80
19654;DHT22;9975;48.046;7.804;2023-02-28T18:13:25;2.90;60.40
19654;DHT22;9975;48.046;7.804;2023-02-28T18:15:53;2.70;59.50
19654;DHT22;9975;48.046;7.804;2023-02-28T18:18:19;3.40;61.00
19654;DHT22;9975;48.046;7.804;2023-02-28T18:20:44;3.10;60.70
19654;DHT22;9975;48.046;7.804;2023-02-28T18:23:10;3.80;62.00
19654;DHT22;9975;48.046;7.804;2023-02-28T18:25:36;2.60;60.60
19654;DHT22;9975;48.046;7.804;2023-02-28T18:28:03;2.80;61.40
19654;DHT22;9975;48.046;7.804;2023-02-28T18:30:31;2.30;62.30
19654;DHT22;9975;48.046;7.804;2023-02-28T18:32:58;2.20;62.50
19654;DHT22;9975;48.046;7.804;2023-02-28T18:35:24;2.00;62.20
19654;DHT22;9975;48.046;7.804;2023-02-28T18:38:18;2.00;62.00
19654;DHT22;9975;48.046;7.804;2023-02-28T18:40:52;2.00;62.10
19654;DHT22;9975;48.046;7.804;2023-02-28T18:43:22;2.00;62.70
19654;DHT22;9975;48.046;7.804;2023-02-28T18:45:48;1.90;62.80
19654;DHT22;9975;48.046;7.804;2023-02-28T18:48:13;2.70;63.80
19654;DHT22;9975;48.046;7.804;2023-02-28T18:50:40;1.60;62.80
19654;DHT22;9975;48.046;7.804;2023-02-28T18:53:06;1.50;62.60
19654;DHT22;9975;48.046;7.804;2023-02-28T18:55:32;1.50;62.90
19654;DHT22;9975;48.046;7.804;2023-02-28T18:57:59;1.70;63.90
19654;DHT22;9975;48.046;7.804;2023-02-28T19:00:25;1.50;63.50
19654;DHT22;9975;48.046;7.804;2023-02-28T19:02:51;1.40;63.70
19654;DHT22;9975;48.046;7.804;2023-02-28T19:05:17;1.40;63.80
19654;DHT22;9975;48.046;7.804;2023-02-28T19:07:44;1.30;64.30
19654;DHT22;9975;48.046;7.804;2023-02-28T19:10:10;1.30;65.00
19654;DHT22;9975;48.046;7.804;2023-02-28T19:12:37;1.10;65.50
19654;DHT22;9975;48.046;7.804;2023-02-28T19:15:07;1.00;65.90
19654;DHT22;9975;48.046;7.804;2023-02-28T19:17:33;1.10;66.40
19654;DHT22;9975;48.046;7.804;2023-02-28T19:20:01;1.40;67.40
19654;DHT22;9975;48.046;7.804;2023-02-28T19:22:27;1.00;65.70
19654;DHT22;9975;48.046;7.804;2023-02-28T19:24:53;1.00;66.40
19654;DHT22;9975;48.046;7.804;2023-02-28T19:27:18;0.90;66.90
19654;DHT22;9975;48.046;7.804;2023-02-28T19:29:48;0.90;67.10
19654;DHT22;9975;48.046;7.804;2023-02-28T19:32:15;0.70;66.80
19654;DHT22;9975;48.046;7.804;2023-02-28T19:34:42;0.60;67.00
19654;DHT22;9975;48.046;7.804;2023-02-28T19:37:09;0.40;67.40
19654;DHT22;9975;48.046;7.804;2023-02-28T19:39:35;0.40;67.70
19654;DHT22;9975;48.046;7.804;2023-02-28T19:42:08;0.30;68.20
19654;DHT22;9975;48.046;7.804;2023-02-28T19:44:33;0.40;68.80
19654;DHT22;9975;48.046;7.804;2023-02-28T19:46:59;0.30;69.30
19654;DHT22;9975;48.046;7.804;2023-02-28T19:49:25;0.20;69.30
19654;DHT22;9975;48.046;7.804;2023-02-28T19:51:50;0.20;69.00
19654;DHT22;9975;48.046;7.804;2023-02-28T19:54:17;0.10;69.70
19654;DHT22;9975;48.046;7.804;2023-02-28T19:56:42;0.00;69.90
19654;DHT22;9975;48.046;7.804;2023-02-28T19:59:09;0.10;70.60
19654;DHT22;9975;48.046;7.804;2023-02-28T20:01:35;0.00;71.20
19654;DHT22;9975;48.046;7.804;2023-02-28T20:04:00;-0.10;71.10
19654;DHT22;9975;48.046;7.804;2023-02-28T20:06:30;-0.10;71.80
19654;DHT22;9975;48.046;7.804;2023-02-28T20:08:56;-0.10;72.40
19654;DHT22;9975;48.046;7.804;2023-02-28T20:11:22;-0.10;73.10
19654;DHT22;9975;48.046;7.804;2023-02-28T20:13:48;0.70;74.40
19654;DHT22;9975;48.046;7.804;2023-02-28T20:16:16;-0.10;73.60
19654;DHT22;9975;48.046;7.804;2023-02-28T20:18:42;1.90;76.40
19654;DHT22;9975;48.046;7.804;2023-02-28T20:21:12;-0.10;74.30
19654;DHT22;9975;48.046;7.804;2023-02-28T20:23:38;-0.20;75.20
19654;DHT22;9975;48.046;7.804;2023-02-28T20:26:04;-0.10;76.10
19654;DHT22;9975;48.046;7.804;2023-02-28T20:28:30;-0.30;77.00
19654;DHT22;9975;48.046;7.804;2023-02-28T20:30:56;-0.30;77.10
19654;DHT22;9975;48.046;7.804;2023-02-28T20:33:22;-0.20;77.40
19654;DHT22;9975;48.046;7.804;2023-02-28T20:35:48;-0.10;77.50
19654;DHT22;9975;48.046;7.804;2023-02-28T20:38:16;1.20;78.60
19654;DHT22;9975;48.046;7.804;2023-02-28T20:40:42;-0.30;77.30
19654;DHT22;9975;48.046;7.804;2023-02-28T20:43:08;0.90;78.50
19654;DHT22;9975;48.046;7.804;2023-02-28T20:45:33;-0.50;79.50
19654;DHT22;9975;48.046;7.804;2023-02-28T20:48:00;-0.60;82.30
19654;DHT22;9975;48.046;7.804;2023-02-28T20:50:25;0.10;82.90
19654;DHT22;9975;48.046;7.804;2023-02-28T20:52:51;-0.60;81.30